Time;durP1;ratioP1;P1;durP2;ratioP2;P2;SDS_P1;SDS_P2;PMS_P1;PMS_P2;Temp;Humidity;BMP_temperature;BMP_pressure;BME280_temperature;BME280_humidity;BME280_pressure;Samples;Min_cycle;Max_cycle;Signal;HPM_P1;HPM_P2
2021/12/30 00:01:33;;;;;;;30.30;8.87;;;4.80;99.90;;;;;;5072698;28;20044;-75
2021/12/30 00:04:00;;;;;;;20.60;9.33;;;4.70;99.90;;;;;;5071902;28;20055;-75
2021/12/30 00:06:29;;;;;;;21.57;8.03;;;4.70;99.90;;;;;;5072079;28;20098;-77
2021/12/30 00:08:56;;;;;;;18.13;7.80;;;4.70;99.90;;;;;;5071426;28;20048;-74
2021/12/30 00:11:23;;;;;;;37.43;9.13;;;4.60;99.90;;;;;;5072134;28;20063;-75
2021/12/30 00:13:50;;;;;;;22.30;8.93;;;4.70;99.90;;;;;;5072323;28;20048;-76
2021/12/30 00:16:19;;;;;;;14.30;7.27;;;4.70;99.90;;;;;;5071508;28;20451;-76
2021/12/30 00:18:47;;;;;;;17.23;9.27;;;4.60;99.90;;;;;;5072072;28;20143;-78
2021/12/30 00:21:14;;;;;;;26.50;9.80;;;4.70;99.90;;;;;;5072485;28;20060;-72
2021/12/30 00:23:41;;;;;;;20.23;9.20;;;4.60;99.90;;;;;;5072241;28;20098;-75
2021/12/30 00:26:09;;;;;;;47.60;10.10;;;4.60;99.90;;;;;;5071626;28;20044;-73
2021/12/30 00:28:36;;;;;;;28.97;9.90;;;4.60;99.90;;;;;;5072115;28;20070;-73
2021/12/30 00:31:03;;;;;;;21.23;8.40;;;4.50;99.90;;;;;;5072202;28;20090;-72
2021/12/30 00:33:32;;;;;;;28.27;10.20;;;4.60;99.90;;;;;;5072056;28;20464;-73
2021/12/30 00:36:00;;;;;;;71.17;11.33;;;4.60;99.90;;;;;;5071200;28;20047;-73
2021/12/30 00:38:27;;;;;;;36.17;10.57;;;4.60;99.90;;;;;;5072358;28;20048;-73
2021/12/30 00:40:53;;;;;;;18.90;10.73;;;4.60;99.90;;;;;;5072316;28;20101;-74
2021/12/30 00:43:20;;;;;;;21.27;8.77;;;4.60;99.90;;;;;;5071982;28;20091;-72
2021/12/30 00:45:47;;;;;;;20.13;9.60;;;4.60;99.90;;;;;;5071345;28;20052;-72
2021/12/30 00:48:14;;;;;;;38.07;11.03;;;4.60;99.90;;;;;;5071741;28;20055;-76
2021/12/30 00:50:42;;;;;;;26.50;9.97;;;4.70;99.90;;;;;;5071686;28;20048;-76
2021/12/30 00:53:09;;;;;;;21.13;8.63;;;4.70;99.90;;;;;;5071805;28;20074;-77
2021/12/30 00:55:37;;;;;;;22.53;9.50;;;4.60;99.90;;;;;;5071182;28;20095;-76
2021/12/30 00:58:05;;;;;;;23.70;9.43;;;4.70;99.90;;;;;;5071811;28;20041;-73
2021/12/30 01:00:33;;;;;;;22.97;9.30;;;4.70;99.90;;;;;;5071551;28;20110;-76
2021/12/30 01:02:59;;;;;;;20.13;7.73;;;4.70;99.90;;;;;;5071656;28;20063;-76
2021/12/30 01:05:26;;;;;;;22.60;9.50;;;4.70;99.90;;;;;;5071155;28;20056;-75
2021/12/30 01:07:54;;;;;;;19.80;8.93;;;4.80;99.90;;;;;;5071901;28;20094;-76
2021/12/30 01:10:23;;;;;;;19.17;9.73;;;4.80;99.90;;;;;;5071562;28;20045;-76
2021/12/30 01:12:50;;;;;;;20.70;9.30;;;4.70;99.90;;;;;;5071465;28;20041;-74
2021/12/30 01:15:33;;;;;;;19.33;8.20;;;4.80;99.90;;;;;;5070846;28;20044;-74
2021/12/30 01:18:22;;;;;;;17.27;7.10;;;4.80;99.90;;;;;;5071551;28;20135;-73
2021/12/30 01:20:49;;;;;;;24.23;8.50;;;4.80;99.90;;;;;;5075423;28;20051;-73
2021/12/30 01:23:17;;;;;;;17.30;9.47;;;4.80;99.90;;;;;;5075218;28;20045;-74
2021/12/30 01:25:44;;;;;;;23.83;7.90;;;4.80;99.90;;;;;;5074514;28;20045;-74
2021/12/30 01:28:10;;;;;;;20.50;9.87;;;4.90;99.90;;;;;;5075256;28;20105;-73
2021/12/30 01:30:37;;;;;;;22.13;10.73;;;4.80;99.90;;;;;;5075289;28;20405;-78
2021/12/30 01:33:04;;;;;;;21.83;9.27;;;4.80;99.90;;;;;;5075080;28;20398;-77
2021/12/30 01:35:31;;;;;;;22.00;10.33;;;4.90;99.90;;;;;;5074456;28;20074;-75
2021/12/30 01:38:00;;;;;;;23.87;9.57;;;4.90;99.90;;;;;;5074812;28;20048;-76
2021/12/30 01:40:29;;;;;;;17.57;7.73;;;4.90;99.90;;;;;;5074696;28;20098;-76
2021/12/30 01:42:55;;;;;;;20.53;9.70;;;4.90;99.90;;;;;;5075048;28;20095;-75
2021/12/30 01:45:22;;;;;;;23.93;10.80;;;4.90;99.90;;;;;;5074275;28;20051;-75
2021/12/30 01:47:51;;;;;;;22.47;10.30;;;4.90;99.90;;;;;;5074753;28;20045;-75
2021/12/30 01:50:19;;;;;;;27.87;10.87;;;4.90;99.90;;;;;;5074585;28;20048;-74
2021/12/30 01:52:46;;;;;;;22.93;10.60;;;5.00;99.90;;;;;;5074565;28;20052;-72
2021/12/30 01:55:15;;;;;;;22.43;10.10;;;5.10;99.90;;;;;;5074138;28;20102;-73
2021/12/30 01:57:43;;;;;;;21.53;10.13;;;5.10;99.90;;;;;;5074847;28;20052;-75
2021/12/30 02:00:14;;;;;;;20.57;10.73;;;5.10;99.90;;;;;;5074754;28;20086;-78
2021/12/30 02:02:41;;;;;;;23.63;11.32;;;5.20;99.90;;;;;;5074633;28;20053;-74
2021/12/30 02:05:08;;;;;;;19.50;11.43;;;5.20;99.90;;;;;;5073812;28;20048;-74
2021/12/30 02:07:35;;;;;;;25.20;10.17;;;5.20;99.90;;;;;;5074173;28;20102;-73
2021/12/30 02:10:02;;;;;;;23.27;9.77;;;5.20;99.90;;;;;;5074158;28;20079;-74
2021/12/30 02:12:31;;;;;;;23.03;11.53;;;5.20;99.90;;;;;;5074274;28;20063;-73
2021/12/30 02:15:00;;;;;;;18.63;10.17;;;5.20;99.90;;;;;;5073775;28;20052;-73
2021/12/30 02:17:27;;;;;;;25.07;10.50;;;5.20;99.90;;;;;;5074255;28;20040;-72
2021/12/30 02:19:59;;;;;;;22.23;10.80;;;5.20;99.90;;;;;;5074040;28;20044;-74
2021/12/30 02:22:26;;;;;;;22.08;9.93;;;5.30;99.90;;;;;;5074370;28;20125;-73
2021/12/30 02:24:53;;;;;;;24.00;10.43;;;5.30;99.90;;;;;;5073436;28;20067;-72
2021/12/30 02:27:20;;;;;;;23.03;9.97;;;5.30;99.90;;;;;;5074067;28;20056;-73
2021/12/30 02:29:47;;;;;;;18.97;11.00;;;5.30;99.90;;;;;;5074184;28;20044;-72
2021/12/30 02:32:13;;;;;;;20.70;11.07;;;5.30;99.90;;;;;;5073086;28;20493;-73
2021/12/30 02:34:40;;;;;;;20.97;10.00;;;5.40;99.90;;;;;;5073080;28;20497;-74
2021/12/30 02:37:09;;;;;;;22.27;11.23;;;5.40;99.90;;;;;;5073825;28;20041;-73
2021/12/30 02:39:36;;;;;;;26.17;11.27;;;5.50;99.90;;;;;;5073732;28;20052;-74
2021/12/30 02:42:03;;;;;;;20.20;8.67;;;5.50;99.90;;;;;;5073622;28;20484;-77
2021/12/30 02:44:30;;;;;;;20.00;10.63;;;5.40;99.90;;;;;;5073151;28;20094;-75
2021/12/30 02:46:57;;;;;;;17.03;11.23;;;5.50;99.90;;;;;;5073937;28;20117;-75
2021/12/30 02:49:23;;;;;;;21.57;10.40;;;5.50;99.90;;;;;;5073385;28;20440;-77
2021/12/30 02:51:50;;;;;;;18.73;11.00;;;5.50;99.90;;;;;;5072671;28;20086;-76
2021/12/30 02:54:18;;;;;;;16.57;9.77;;;5.40;99.90;;;;;;5072955;28;20055;-76
2021/12/30 02:56:47;;;;;;;20.10;9.60;;;5.50;99.90;;;;;;5073437;28;20041;-75
2021/12/30 02:59:14;;;;;;;22.23;10.93;;;5.50;99.90;;;;;;5073475;28;20166;-73
2021/12/30 03:01:41;;;;;;;21.93;10.17;;;5.50;99.90;;;;;;5073198;28;20135;-74
2021/12/30 03:04:08;;;;;;;20.60;10.40;;;5.60;99.90;;;;;;5072921;28;20071;-74
2021/12/30 03:06:35;;;;;;;18.77;10.23;;;5.60;99.90;;;;;;5073077;28;20048;-73
2021/12/30 03:09:03;;;;;;;20.50;8.60;;;5.60;99.90;;;;;;5073122;28;20040;-76
2021/12/30 03:11:31;;;;;;;19.77;10.83;;;5.70;99.90;;;;;;5072969;28;20113;-74
2021/12/30 03:13:59;;;;;;;21.43;10.30;;;5.60;99.90;;;;;;5072828;28;20066;-73
2021/12/30 03:16:29;;;;;;;20.47;10.40;;;5.60;99.90;;;;;;5072778;28;20048;-72
2021/12/30 03:18:57;;;;;;;18.50;9.63;;;5.60;99.90;;;;;;5072870;28;20055;-72
2021/12/30 03:21:24;;;;;;;20.37;10.00;;;5.70;99.90;;;;;;5073068;28;20094;-74
2021/12/30 03:23:52;;;;;;;21.63;10.33;;;5.60;99.90;;;;;;5072784;28;20101;-73
2021/12/30 03:26:20;;;;;;;22.00;9.63;;;5.60;99.90;;;;;;5072128;28;20496;-74
2021/12/30 03:28:48;;;;;;;22.33;11.10;;;5.60;99.90;;;;;;5072619;28;20048;-72
2021/12/30 03:31:17;;;;;;;21.30;8.97;;;5.60;99.90;;;;;;5072969;28;20098;-73
2021/12/30 03:33:45;;;;;;;24.23;11.73;;;5.60;99.90;;;;;;5072573;28;20090;-72
2021/12/30 03:36:14;;;;;;;21.77;11.00;;;5.60;99.90;;;;;;5072010;28;20091;-74
2021/12/30 03:38:44;;;;;;;21.23;10.13;;;5.70;99.90;;;;;;5072777;28;20319;-73
2021/12/30 03:41:13;;;;;;;22.73;10.50;;;5.70;99.90;;;;;;5072648;28;20109;-75
2021/12/30 03:43:40;;;;;;;19.93;10.33;;;5.70;99.90;;;;;;5072649;28;20052;-76
2021/12/30 03:46:09;;;;;;;17.80;8.27;;;5.70;99.90;;;;;;5072612;28;20048;-76
2021/12/30 03:48:41;;;;;;;25.00;11.00;;;5.70;99.90;;;;;;5073102;28;20067;-76
2021/12/30 03:51:11;;;;;;;18.63;10.10;;;5.70;99.90;;;;;;5072871;28;20489;-76
2021/12/30 03:53:42;;;;;;;24.27;10.23;;;5.70;99.90;;;;;;5072830;28;20053;-75
2021/12/30 03:56:10;;;;;;;19.97;9.87;;;5.70;99.90;;;;;;5072140;28;20052;-75
2021/12/30 03:58:38;;;;;;;22.73;11.87;;;5.70;99.90;;;;;;5072408;28;20485;-75
2021/12/30 04:01:07;;;;;;;27.57;11.23;;;5.70;99.90;;;;;;5072318;28;20079;-76
2021/12/30 04:03:38;;;;;;;25.73;10.37;;;5.70;99.90;;;;;;5072262;28;20044;-74
2021/12/30 04:06:05;;;;;;;20.77;10.15;;;5.80;99.90;;;;;;5071921;28;20118;-76
2021/12/30 04:08:31;;;;;;;23.53;10.07;;;5.80;99.90;;;;;;5072085;28;20048;-73
2021/12/30 04:10:58;;;;;;;25.57;10.73;;;5.80;99.90;;;;;;5072775;28;20052;-74
2021/12/30 04:13:25;;;;;;;26.00;11.93;;;5.80;99.90;;;;;;5072080;28;20045;-72
2021/12/30 04:15:52;;;;;;;24.17;10.20;;;5.90;99.90;;;;;;5071450;28;20048;-72
2021/12/30 04:18:19;;;;;;;30.17;12.13;;;5.90;99.90;;;;;;5071789;28;20074;-73
2021/12/30 04:20:47;;;;;;;22.47;11.23;;;5.90;99.90;;;;;;5072013;28;20436;-73
2021/12/30 04:23:14;;;;;;;25.33;12.83;;;5.90;99.90;;;;;;5072241;28;20048;-73
2021/12/30 04:25:40;;;;;;;25.33;11.83;;;6.00;99.90;;;;;;5071464;28;20048;-73
2021/12/30 04:28:07;;;;;;;16.00;8.47;;;6.00;99.90;;;;;;5071670;28;20048;-73
2021/12/30 04:30:34;;;;;;;26.93;11.33;;;6.00;99.90;;;;;;5072034;28;20052;-72
2021/12/30 04:33:00;;;;;;;24.97;10.60;;;6.10;99.90;;;;;;5072048;28;20045;-75
2021/12/30 04:35:27;;;;;;;29.60;11.07;;;6.10;99.90;;;;;;5071730;28;20045;-74
2021/12/30 04:37:55;;;;;;;22.20;9.80;;;6.20;99.90;;;;;;5072147;28;20052;-77
2021/12/30 04:40:22;;;;;;;25.60;10.87;;;6.20;99.90;;;;;;5071966;28;20282;-75
2021/12/30 04:42:48;;;;;;;25.57;10.27;;;6.20;99.90;;;;;;5072018;28;20104;-76
2021/12/30 04:45:15;;;;;;;31.97;10.30;;;6.30;99.90;;;;;;5071223;28;20044;-79
2021/12/30 04:47:42;;;;;;;31.27;12.20;;;6.30;99.90;;;;;;5071841;28;20463;-76
2021/12/30 04:50:11;;;;;;;28.40;10.53;;;6.30;99.90;;;;;;5071712;28;20057;-72
2021/12/30 04:52:38;;;;;;;28.10;10.67;;;6.40;99.90;;;;;;5071463;28;20485;-74
2021/12/30 04:55:07;;;;;;;22.60;11.53;;;6.50;99.90;;;;;;5073892;28;20552;-73
2021/12/30 04:57:33;;;;;;;31.00;10.80;;;6.50;99.90;;;;;;5075539;28;20558;-74
2021/12/30 05:00:00;;;;;;;32.77;12.87;;;6.60;99.90;;;;;;5075610;28;20052;-73
2021/12/30 05:02:36;;;;;;;30.43;12.80;;;6.50;99.90;;;;;;5075666;28;20098;-76
2021/12/30 05:05:03;;;;;;;26.03;12.20;;;6.60;99.90;;;;;;5075347;28;20041;-73
2021/12/30 05:07:30;;;;;;;31.90;13.00;;;6.70;99.90;;;;;;5075622;28;20044;-74
2021/12/30 05:09:56;;;;;;;37.90;14.63;;;6.80;99.90;;;;;;5076062;28;20451;-75
2021/12/30 05:12:24;;;;;;;38.30;12.07;;;6.70;99.90;;;;;;5075449;28;20484;-73
2021/12/30 05:14:51;;;;;;;29.57;12.87;;;6.80;99.90;;;;;;5074783;28;20105;-73
2021/12/30 05:17:18;;;;;;;34.07;11.37;;;6.90;99.90;;;;;;5075107;28;20098;-73
2021/12/30 05:19:44;;;;;;;29.23;12.57;;;7.00;99.90;;;;;;5075031;28;20070;-74
2021/12/30 05:22:11;;;;;;;39.47;11.57;;;7.00;99.90;;;;;;5075084;28;20385;-74
2021/12/30 05:24:38;;;;;;;41.80;12.00;;;7.10;99.90;;;;;;5074566;28;20076;-74
2021/12/30 05:27:05;;;;;;;38.87;14.20;;;7.10;99.90;;;;;;5075167;28;20550;-75
2021/12/30 05:29:33;;;;;;;34.23;13.47;;;7.10;99.90;;;;;;5075027;28;20097;-73
2021/12/30 05:31:59;;;;;;;35.77;14.43;;;7.10;99.90;;;;;;5074951;28;20563;-74
2021/12/30 05:34:26;;;;;;;34.40;14.05;;;7.20;99.90;;;;;;5074673;28;20045;-72
2021/12/30 05:36:52;;;;;;;33.53;13.20;;;7.20;99.90;;;;;;5074824;28;20098;-73
2021/12/30 05:39:19;;;;;;;38.45;13.27;;;7.20;99.90;;;;;;5074870;28;20122;-72
2021/12/30 05:41:46;;;;;;;32.83;12.53;;;7.30;99.90;;;;;;5074559;28;20053;-72
2021/12/30 05:44:12;;;;;;;45.47;14.27;;;7.30;99.90;;;;;;5074261;28;20394;-72
2021/12/30 05:46:40;;;;;;;45.05;14.82;;;7.40;99.90;;;;;;5074509;28;20044;-76
2021/12/30 05:49:07;;;;;;;38.30;14.00;;;7.40;99.90;;;;;;5074710;28;20083;-78
2021/12/30 05:51:33;;;;;;;49.40;13.63;;;7.40;99.90;;;;;;5074308;28;20417;-75
2021/12/30 05:54:00;;;;;;;40.47;15.35;;;7.50;99.90;;;;;;5074252;28;20464;-75
2021/12/30 05:56:27;;;;;;;53.37;15.67;;;7.50;99.90;;;;;;5074439;28;20547;-75
2021/12/30 05:58:53;;;;;;;39.28;15.75;;;7.50;99.90;;;;;;5074626;28;20044;-76
2021/12/30 06:01:20;;;;;;;47.93;16.17;;;7.60;99.90;;;;;;5074611;28;20044;-76
2021/12/30 06:03:48;;;;;;;43.58;14.40;;;7.60;99.90;;;;;;5074291;28;20106;-73
2021/12/30 06:06:14;;;;;;;43.65;14.63;;;7.60;99.90;;;;;;5072911;28;20045;-73
2021/12/30 06:08:41;;;;;;;50.97;15.82;;;7.60;99.90;;;;;;5074400;28;20099;-73
2021/12/30 06:11:08;;;;;;;46.45;16.13;;;7.60;99.90;;;;;;5074285;28;20044;-75
2021/12/30 06:13:34;;;;;;;42.30;15.15;;;7.60;99.90;;;;;;5074113;28;20049;-76
2021/12/30 06:16:01;;;;;;;39.80;13.25;;;7.60;99.90;;;;;;5073680;28;20493;-76
2021/12/30 06:18:28;;;;;;;37.08;13.93;;;7.60;99.90;;;;;;5074095;28;20041;-73
2021/12/30 06:20:57;;;;;;;36.58;13.55;;;7.70;99.90;;;;;;5074191;28;20041;-74
2021/12/30 06:23:24;;;;;;;40.17;15.02;;;7.70;99.90;;;;;;5074432;28;20041;-73
2021/12/30 06:25:51;;;;;;;44.97;14.70;;;7.70;99.90;;;;;;5073935;28;20044;-73
2021/12/30 06:28:17;;;;;;;44.90;14.53;;;7.70;99.90;;;;;;5075234;28;20106;-74
2021/12/30 06:30:44;;;;;;;56.00;17.27;;;7.70;99.90;;;;;;5074000;28;20339;-74
2021/12/30 06:33:11;;;;;;;43.72;15.77;;;7.70;99.90;;;;;;5073817;28;20048;-73
2021/12/30 06:35:37;;;;;;;44.00;15.48;;;7.70;99.90;;;;;;5073173;28;20053;-72
2021/12/30 06:38:06;;;;;;;41.70;15.45;;;7.80;99.90;;;;;;5073612;28;20097;-74
2021/12/30 06:40:32;;;;;;;46.72;14.80;;;7.80;99.90;;;;;;5073744;28;20045;-73
2021/12/30 06:42:59;;;;;;;42.20;15.32;;;7.80;99.90;;;;;;5073642;28;20049;-73
2021/12/30 06:45:26;;;;;;;44.40;17.57;;;7.90;99.90;;;;;;5073200;28;20458;-76
2021/12/30 06:47:52;;;;;;;40.63;15.23;;;7.80;99.90;;;;;;5073380;28;20056;-73
2021/12/30 06:50:22;;;;;;;44.17;16.63;;;7.80;99.90;;;;;;5074751;28;20076;-76
2021/12/30 06:52:49;;;;;;;39.63;14.73;;;7.90;99.90;;;;;;5073169;28;20052;-75
2021/12/30 06:55:18;;;;;;;37.38;15.38;;;7.90;99.90;;;;;;5072904;28;20052;-76
2021/12/30 06:57:45;;;;;;;33.00;12.63;;;7.90;99.90;;;;;;5073362;28;20044;-72
2021/12/30 07:00:13;;;;;;;46.63;13.57;;;7.80;99.90;;;;;;5073284;28;20048;-75
2021/12/30 07:02:42;;;;;;;32.50;13.88;;;7.80;99.90;;;;;;5073200;28;20052;-75
2021/12/30 07:05:09;;;;;;;34.30;11.80;;;7.70;99.90;;;;;;5072404;28;20102;-75
2021/12/30 07:07:35;;;;;;;28.60;11.87;;;7.70;99.90;;;;;;5073112;28;20044;-75
2021/12/30 07:10:02;;;;;;;27.33;11.88;;;7.60;99.90;;;;;;5073045;28;20090;-76
2021/12/30 07:12:30;;;;;;;32.67;13.63;;;7.60;99.90;;;;;;5073224;28;20045;-72
2021/12/30 07:14:57;;;;;;;32.77;13.53;;;7.60;99.90;;;;;;5072435;28;20045;-72
2021/12/30 07:17:26;;;;;;;44.27;13.20;;;7.50;99.90;;;;;;5072879;28;20343;-73
2021/12/30 07:19:52;;;;;;;36.30;11.85;;;7.50;99.90;;;;;;5072638;28;20090;-73
2021/12/30 07:22:19;;;;;;;23.20;10.60;;;7.40;99.90;;;;;;5072712;28;20103;-74
2021/12/30 07:24:46;;;;;;;34.10;13.38;;;7.30;99.90;;;;;;5072427;28;20455;-72
2021/12/30 07:27:12;;;;;;;25.47;12.33;;;7.30;99.90;;;;;;5073118;28;20455;-76
2021/12/30 07:29:40;;;;;;;31.58;13.13;;;7.30;99.90;;;;;;5073002;28;20052;-75
2021/12/30 07:32:07;;;;;;;32.37;14.23;;;7.30;99.90;;;;;;5073992;28;20551;-76
2021/12/30 07:34:34;;;;;;;33.35;13.52;;;7.20;99.90;;;;;;5077446;28;20566;-77
2021/12/30 07:37:01;;;;;;;26.40;11.23;;;7.20;99.90;;;;;;5077284;28;20044;-76
2021/12/30 07:39:27;;;;;;;23.42;12.88;;;7.20;99.90;;;;;;5076205;28;20098;-75
2021/12/30 07:41:54;;;;;;;31.57;12.33;;;7.10;99.90;;;;;;5074134;28;20047;-74
2021/12/30 07:44:20;;;;;;;29.52;12.18;;;7.10;99.90;;;;;;5072664;28;20097;-74
2021/12/30 07:46:48;;;;;;;30.70;12.23;;;7.20;99.90;;;;;;5072736;28;20451;-74
2021/12/30 07:49:15;;;;;;;39.53;13.50;;;7.20;99.90;;;;;;5073291;28;20045;-76
2021/12/30 07:51:42;;;;;;;33.53;12.47;;;7.30;99.90;;;;;;5073112;28;20097;-76
2021/12/30 07:54:08;;;;;;;27.80;12.02;;;7.30;99.90;;;;;;5072082;28;20497;-75
2021/12/30 07:56:35;;;;;;;31.02;12.52;;;7.30;99.90;;;;;;5072316;28;20044;-73
2021/12/30 07:59:01;;;;;;;37.17;14.97;;;7.30;99.90;;;;;;5072200;28;20097;-73
2021/12/30 08:01:28;;;;;;;28.13;12.70;;;7.40;99.90;;;;;;5072247;28;20049;-75
2021/12/30 08:03:56;;;;;;;39.03;14.40;;;7.40;99.90;;;;;;5071912;28;20094;-71
2021/12/30 08:06:26;;;;;;;28.17;13.23;;;7.40;99.90;;;;;;5071840;28;20049;-75
2021/12/30 08:08:53;;;;;;;27.70;12.27;;;7.40;99.90;;;;;;5072462;28;20045;-76
2021/12/30 08:11:20;;;;;;;29.10;13.43;;;7.40;99.90;;;;;;5072498;28;20495;-75
2021/12/30 08:13:47;;;;;;;32.28;12.85;;;7.40;99.90;;;;;;5072730;28;20386;-76
2021/12/30 08:16:14;;;;;;;30.30;12.97;;;7.50;99.90;;;;;;5072432;28;20447;-77
2021/12/30 08:18:41;;;;;;;39.30;11.73;;;7.50;99.90;;;;;;5072889;28;20045;-78
2021/12/30 08:21:10;;;;;;;30.20;13.15;;;7.50;99.90;;;;;;5073348;28;20041;-75
2021/12/30 08:23:37;;;;;;;39.17;11.93;;;7.60;99.90;;;;;;5072680;28;20048;-74
2021/12/30 08:26:04;;;;;;;30.70;12.93;;;7.60;99.90;;;;;;5071414;28;20122;-73
2021/12/30 08:28:30;;;;;;;28.08;11.15;;;7.70;99.90;;;;;;5071074;28;20048;-70
2021/12/30 08:30:58;;;;;;;42.35;12.02;;;7.70;99.90;;;;;;5071334;28;20430;-70
2021/12/30 08:33:24;;;;;;;31.80;11.02;;;7.80;99.90;;;;;;5071548;28;20463;-70
2021/12/30 08:35:51;;;;;;;29.95;11.18;;;7.70;99.90;;;;;;5071614;28;20053;-72
2021/12/30 08:38:19;;;;;;;25.50;11.35;;;7.70;99.90;;;;;;5071997;28;20106;-75
2021/12/30 08:40:47;;;;;;;31.10;11.50;;;7.70;99.90;;;;;;5072402;28;20106;-74
2021/12/30 08:43:14;;;;;;;20.25;10.70;;;7.70;99.90;;;;;;5072208;28;20048;-75
2021/12/30 08:45:41;;;;;;;24.63;11.63;;;7.70;99.90;;;;;;5071250;28;20056;-75
2021/12/30 08:48:08;;;;;;;27.33;10.65;;;7.60;99.90;;;;;;5071783;28;20040;-72
2021/12/30 08:50:35;;;;;;;25.48;10.40;;;7.70;99.90;;;;;;5071747;28;20455;-73
2021/12/30 08:53:02;;;;;;;42.50;11.68;;;7.70;99.90;;;;;;5071029;28;20106;-71
2021/12/30 08:55:33;;;;;;;24.73;11.50;;;7.70;99.90;;;;;;5070642;28;20071;-70
2021/12/30 08:58:00;;;;;;;26.98;10.65;;;7.70;99.90;;;;;;5071202;28;20463;-71
2021/12/30 09:00:30;;;;;;;20.48;9.80;;;7.70;99.90;;;;;;5071740;28;20045;-71
2021/12/30 09:03:00;;;;;;;27.88;11.95;;;7.70;99.90;;;;;;5072122;28;20075;-72
2021/12/30 09:05:27;;;;;;;29.83;11.27;;;7.70;99.90;;;;;;5070862;28;20334;-72
2021/12/30 09:07:54;;;;;;;22.90;11.65;;;7.70;99.90;;;;;;5071141;28;20044;-72
2021/12/30 09:10:21;;;;;;;24.48;12.43;;;7.80;99.90;;;;;;5071164;28;20051;-72
2021/12/30 09:12:51;;;;;;;32.15;11.63;;;7.80;99.90;;;;;;5071196;28;20075;-72
2021/12/30 09:15:20;;;;;;;25.95;10.65;;;7.90;99.90;;;;;;5070893;28;20040;-72
2021/12/30 09:17:47;;;;;;;33.60;11.82;;;7.90;99.90;;;;;;5071071;28;20447;-71
2021/12/30 09:20:14;;;;;;;34.92;10.77;;;7.90;99.90;;;;;;5071345;28;20064;-74
2021/12/30 09:22:41;;;;;;;27.15;10.55;;;7.80;99.90;;;;;;5070974;28;20460;-71
2021/12/30 09:25:09;;;;;;;28.75;10.98;;;7.90;99.90;;;;;;5070307;28;20040;-72
2021/12/30 09:27:38;;;;;;;23.33;10.57;;;7.90;99.90;;;;;;5070738;28;20045;-71
2021/12/30 09:30:09;;;;;;;32.85;10.70;;;7.90;99.90;;;;;;5071062;28;20044;-71
2021/12/30 09:32:35;;;;;;;34.00;12.05;;;7.90;99.90;;;;;;5071002;28;20048;-70
2021/12/30 09:35:03;;;;;;;18.13;8.90;;;7.90;99.90;;;;;;5070197;28;20493;-70
2021/12/30 09:37:30;;;;;;;21.58;11.07;;;8.00;99.90;;;;;;5070865;28;20052;-70
2021/12/30 09:39:58;;;;;;;27.30;11.98;;;8.00;99.90;;;;;;5070940;28;20048;-71
2021/12/30 09:42:25;;;;;;;27.63;9.52;;;8.10;99.90;;;;;;5074100;28;20041;-70
2021/12/30 09:44:53;;;;;;;25.55;9.82;;;8.10;99.90;;;;;;5073865;28;20389;-71
2021/12/30 09:47:21;;;;;;;31.27;10.82;;;8.10;99.90;;;;;;5074317;28;20312;-71
2021/12/30 09:49:50;;;;;;;28.30;10.43;;;8.10;99.90;;;;;;5074243;28;20045;-74
2021/12/30 09:52:18;;;;;;;32.65;11.75;;;8.10;99.90;;;;;;5074328;28;20056;-73
2021/12/30 09:54:44;;;;;;;24.20;10.63;;;8.10;99.90;;;;;;5073717;28;20056;-72
2021/12/30 09:57:11;;;;;;;24.73;10.38;;;8.10;99.90;;;;;;5074376;28;20048;-73
2021/12/30 09:59:38;;;;;;;30.10;10.82;;;8.20;99.90;;;;;;5073282;28;20447;-75
2021/12/30 10:02:04;;;;;;;21.45;11.40;;;8.10;99.90;;;;;;5073998;28;20451;-69
2021/12/30 10:04:36;;;;;;;22.65;9.18;;;8.20;99.90;;;;;;5073749;28;20040;-75
2021/12/30 10:07:17;;;;;;;28.35;9.88;;;8.20;99.90;;;;;;5075463;28;20040;-76
2021/12/30 10:09:50;;;;;;;17.60;9.60;;;8.20;99.90;;;;;;5077375;28;20045;-74
2021/12/30 10:12:33;;;;;;;19.27;7.82;;;8.20;99.90;;;;;;5074115;28;20041;-72
2021/12/30 10:15:00;;;;;;;20.23;9.93;;;8.20;99.90;;;;;;5073198;28;20053;-75
2021/12/30 10:17:29;;;;;;;18.77;8.95;;;8.20;99.90;;;;;;5074422;28;20044;-72
2021/12/30 10:20:15;;;;;;;24.33;10.10;;;8.20;99.90;;;;;;5073397;28;20044;-73
2021/12/30 10:22:42;;;;;;;20.40;8.85;;;8.20;99.90;;;;;;5074004;28;20048;-71
2021/12/30 10:25:30;;;;;;;23.10;10.25;;;8.20;99.90;;;;;;5072976;28;20497;-73
2021/12/30 10:28:20;;;;;;;18.45;8.95;;;8.20;99.90;;;;;;5073960;28;20040;-75
2021/12/30 10:30:48;;;;;;;17.83;8.07;;;8.20;99.90;;;;;;5073912;28;20079;-74
2021/12/30 10:33:16;;;;;;;22.85;8.82;;;8.30;99.90;;;;;;5074009;28;20037;-75
2021/12/30 10:35:45;;;;;;;18.70;8.88;;;8.20;99.90;;;;;;5073359;28;20082;-74
2021/12/30 10:38:12;;;;;;;21.55;9.52;;;8.20;99.90;;;;;;5073760;28;20402;-75
2021/12/30 10:40:41;;;;;;;18.90;8.45;;;8.20;99.90;;;;;;5073895;28;20047;-74
2021/12/30 10:43:24;;;;;;;20.85;8.73;;;8.30;99.90;;;;;;5073671;28;20493;-75
2021/12/30 10:46:06;;;;;;;23.67;10.40;;;8.30;99.90;;;;;;5073394;28;20075;-74
2021/12/30 10:48:33;;;;;;;23.58;9.25;;;8.30;99.90;;;;;;5073940;28;20048;-75
2021/12/30 10:51:12;;;;;;;17.63;9.80;;;8.30;99.90;;;;;;5074055;28;20102;-75
2021/12/30 10:53:39;;;;;;;19.10;9.93;;;8.40;99.90;;;;;;5073621;28;20049;-75
2021/12/30 10:56:23;;;;;;;18.05;9.27;;;8.40;99.90;;;;;;5073518;28;20481;-73
2021/12/30 10:58:50;;;;;;;19.00;8.40;;;8.40;99.90;;;;;;5073532;28;20094;-75
2021/12/30 11:01:19;;;;;;;22.70;8.88;;;8.40;99.90;;;;;;5073354;28;20503;-74
2021/12/30 11:03:55;;;;;;;18.63;9.57;;;8.40;99.90;;;;;;5073330;28;20048;-74
2021/12/30 11:06:24;;;;;;;23.23;8.32;;;8.40;99.90;;;;;;5072928;28;20070;-74
2021/12/30 11:09:06;;;;;;;25.23;9.43;;;8.40;99.90;;;;;;5073550;28;20094;-74
2021/12/30 11:11:32;;;;;;;15.57;7.80;;;8.50;99.90;;;;;;5073356;28;20094;-75
2021/12/30 11:14:04;;;;;;;15.10;7.68;;;8.50;99.90;;;;;;5073108;28;20053;-75
2021/12/30 11:16:32;;;;;;;20.08;8.38;;;8.50;99.90;;;;;;5073335;28;20041;-74
2021/12/30 11:18:59;;;;;;;18.17;9.23;;;8.50;99.90;;;;;;5073138;28;20048;-74
2021/12/30 11:21:42;;;;;;;23.13;10.88;;;8.60;99.90;;;;;;5073840;28;20090;-75
2021/12/30 11:24:09;;;;;;;16.02;7.82;;;8.60;99.90;;;;;;5072824;28;20639;-73
2021/12/30 11:26:36;;;;;;;21.95;8.88;;;8.60;99.90;;;;;;5073653;28;20074;-75
2021/12/30 11:29:05;;;;;;;29.08;10.57;;;8.70;99.90;;;;;;5077808;28;20048;-74
2021/12/30 11:31:33;;;;;;;29.70;9.38;;;8.70;99.90;;;;;;5079975;28;20102;-73
2021/12/30 11:34:00;;;;;;;21.23;10.98;;;8.70;99.90;;;;;;5078668;28;20056;-74
2021/12/30 11:36:28;;;;;;;20.42;9.50;;;8.70;99.90;;;;;;5080249;28;20071;-73
2021/12/30 11:38:57;;;;;;;23.40;10.70;;;8.60;99.90;;;;;;5084630;28;20078;-75
2021/12/30 11:41:26;;;;;;;20.35;9.25;;;8.60;99.90;;;;;;5084646;28;20041;-75
2021/12/30 11:43:53;;;;;;;21.45;8.15;;;8.70;99.90;;;;;;5084982;28;20050;-73
2021/12/30 11:46:44;;;;;;;18.52;10.55;;;8.70;99.90;;;;;;5079920;28;20098;-74
2021/12/30 11:49:14;;;;;;;22.55;11.18;;;8.70;99.90;;;;;;5073741;28;20044;-73
2021/12/30 11:51:46;;;;;;;19.52;11.05;;;8.70;99.90;;;;;;5080220;28;20040;-74
2021/12/30 11:54:38;;;;;;;18.73;9.27;;;8.70;99.90;;;;;;5075514;28;20045;-75
2021/12/30 11:57:28;;;;;;;17.98;9.75;;;8.70;99.90;;;;;;5083140;28;20071;-74
2021/12/30 11:59:55;;;;;;;18.65;8.57;;;8.70;99.90;;;;;;5078836;28;20562;-74
2021/12/30 12:02:35;;;;;;;15.13;8.93;;;8.80;99.90;;;;;;5076387;28;20044;-74
2021/12/30 12:05:40;;;;;;;14.77;8.52;;;8.80;99.90;;;;;;5072668;28;20049;-74
2021/12/30 12:08:08;;;;;;;17.80;7.80;;;8.80;99.90;;;;;;5073701;28;20135;-74
2021/12/30 12:10:39;;;;;;;22.73;8.77;;;8.80;99.90;;;;;;5072841;28;20559;-74
2021/12/30 12:13:35;;;;;;;21.33;7.78;;;8.90;99.90;;;;;;5072420;28;20082;-75
2021/12/30 12:16:03;;;;;;;20.08;8.10;;;8.90;99.90;;;;;;5071481;28;20041;-74
2021/12/30 12:18:31;;;;;;;18.23;9.70;;;8.90;99.90;;;;;;5072088;28;20492;-73
2021/12/30 12:20:59;;;;;;;13.00;6.68;;;8.90;99.90;;;;;;5072181;28;20074;-74
2021/12/30 12:23:34;;;;;;;11.07;6.60;;;8.90;99.90;;;;;;5074671;28;20083;-74
2021/12/30 12:26:10;;;;;;;16.48;7.07;;;8.90;99.90;;;;;;5071806;28;20044;-75
2021/12/30 12:28:37;;;;;;;14.75;7.85;;;9.00;99.90;;;;;;5072247;28;20044;-75
2021/12/30 12:31:06;;;;;;;16.75;7.75;;;9.00;99.90;;;;;;5072023;28;20068;-74
2021/12/30 12:33:34;;;;;;;12.90;6.88;;;8.90;99.90;;;;;;5072161;28;20052;-75
2021/12/30 12:36:02;;;;;;;16.00;6.65;;;8.90;99.90;;;;;;5071456;28;20091;-76
2021/12/30 12:38:43;;;;;;;23.08;7.72;;;8.90;99.90;;;;;;5071859;28;20053;-74
2021/12/30 12:41:21;;;;;;;20.60;7.85;;;8.90;99.90;;;;;;5072194;28;20052;-74
2021/12/30 12:43:52;;;;;;;10.40;7.18;;;9.00;99.90;;;;;;5071883;28;20090;-75
2021/12/30 12:46:38;;;;;;;17.20;6.90;;;9.00;99.90;;;;;;5071408;28;20051;-74
2021/12/30 12:49:06;;;;;;;16.75;9.00;;;9.00;99.90;;;;;;5072063;28;20048;-76